Friday, June 22, 2018, 3:14 AM EDT
Back to Local

KGON, Groton/new London Airport

Location: Groton, CT, United States Lat: 41.333
Local Time: 3:14 AM EDT ( 7:14 GMT) Lon: -72.05
Time Zone: US/Eastern Elev: 9 ft

Show me the last for .
Show Decoded

2018-06-22 02:56 METAR KGON 220656Z AUTO 02004KT 10SM OVC005 18/17 A2990 RMK AO2 SLP125 T01830167
                 $ =
2018-06-22 02:36 METAR KGON 220636Z AUTO 01005KT 10SM OVC005 18/17 A2990 RMK AO2 T01830167 $ =
2018-06-22 01:56 METAR KGON 220556Z AUTO 04006KT 10SM OVC004 18/17 A2990 RMK AO2 SLP123 T01780172
                 10178 20172 50005 $ =
2018-06-22 00:56 METAR KGON 220456Z AUTO 10003KT 3SM R05/6000VP6000FT BR OVC002 17/17 A2990 RMK
                 AO2 SLP123 T01720167 402280172 $ =
2018-06-22 00:51 METAR KGON 220451Z AUTO 12004KT 2SM R05/5000VP6000FT BR OVC002 17/17 A2990 RMK
                 AO2 $ =
2018-06-22 00:33 METAR KGON 220433Z AUTO 13004KT 1 1/2SM R05/5000VP6000FT BR OVC002 17/17 A2990
                 RMK AO2 T01720167 $ =
2018-06-22 00:16 METAR KGON 220416Z AUTO 00000KT 2SM R05/5000VP6000FT BR OVC002 17/17 A2989 RMK
                 AO2 VIS 1 1/4V3 T01720167 $ =
2018-06-21 23:56 METAR KGON 220356Z AUTO 16003KT 1SM R05/4000VP6000FT BR OVC003 17/17 A2988 RMK
                 AO2 SLP118 T01720167 $ =
2018-06-21 22:56 METAR KGON 220256Z AUTO 00000KT 1 1/2SM R05/5000VP6000FT BR OVC002 17/17 A2987
                 RMK AO2 SLP116 T01720167 51021 $ =
2018-06-21 22:35 METAR KGON 220235Z AUTO 12004KT 2 1/2SM BR OVC002 17/17 A2988 RMK AO2 T01720167
                 $ =
2018-06-21 21:56 METAR KGON 220156Z 08004KT 1SM R05/4000V5500FT BR OVC002 17/17 A2987 RMK AO2
                 SLP113 T01720167 $ =
2018-06-21 21:43 METAR KGON 220143Z 11004KT 1SM R05/3500V5500FT BR OVC002 17/17 A2986 RMK AO2
                 T01720167 $ =
2018-06-21 21:36 METAR KGON 220136Z 11003KT 3/4SM R05/3000V6000FT BR VV002 17/17 A2985 RMK AO2
                 T01720167 $ =
2018-06-21 21:19 METAR KGON 220119Z 10005KT 1SM R05/4000V5500FT BR OVC002 17/17 A2984 RMK AO2
                 T01720167 $ =
2018-06-21 21:10 METAR KGON 220110Z 11005KT 3/4SM R05/3500V5500FT BR OVC002 17/17 A2984 RMK AO2
                 T01720167 $ =
2018-06-21 20:56 METAR KGON 220056Z 11004KT 1SM R05/3500VP6000FT BR OVC002 17/17 A2983 RMK AO2
                 SLP101 T01720167 $ =
2018-06-21 19:56 METAR KGON 212356Z 00000KT 1SM R05/P6000FT BR OVC003 18/17 A2981 RMK AO2 SLP095
                 T01780172 10222 20178 51014 $ =
2018-06-21 19:53 METAR KGON 212353Z 13003KT 1SM R05/P6000FT BR OVC003 18/17 A2981 RMK AO2 $ =
2018-06-21 19:44 METAR KGON 212344Z 10004KT 8SM OVC003 18/17 A2981 RMK AO2 T01780167 $ =
2018-06-21 19:34 METAR KGON 212334Z 12003KT 2SM R05/4000VP6000FT BR OVC003 18/17 A2981 RMK AO2
                 VIS 1 1/4V5 T01780172 $ =
2018-06-21 19:12 METAR KGON 212312Z 12008KT 6SM BR BKN003 BKN070 18/17 A2980 RMK AO2 CIG 003V007
                 T01830172 $ =
2018-06-21 19:05 METAR KGON 212305Z 09007KT 8SM BKN005 BKN013 BKN070 19/17 A2980 RMK AO2 CIG
                 003V007 T01890172 $ =
2018-06-21 18:56 METAR KGON 212256Z 12006KT 10SM FEW005 FEW013 SCT070 19/17 A2980 RMK AO2 SLP090
                 T01940172 $ =
2018-06-21 18:51 METAR KGON 212251Z 08008KT 10SM FEW007 FEW013 SCT070 19/17 A2980 RMK AO2 $ =
2018-06-21 17:56 METAR KGON 212156Z 13008KT 10SM CLR 21/17 A2977 RMK AO2 SLP081 T02060172 =
2018-06-21 16:56 METAR KGON 212056Z 16005KT 10SM CLR 21/17 A2976 RMK AO2 SLP077 T02060172 53002 =
2018-06-21 15:56 METAR KGON 211956Z 20007KT 10SM CLR 20/18 A2975 RMK AO2 SLP074 T02000178 =
2018-06-21 14:56 METAR KGON 211856Z 19006KT 10SM CLR 21/18 A2975 RMK AO2 SLP074 T02060178 =
2018-06-21 13:56 METAR KGON 211756Z 15008KT 10SM CLR 21/18 A2976 RMK AO2 SLP076 T02110178 10228
                 20183 56010 =
2018-06-21 12:56 METAR KGON 211656Z 17008KT 10SM CLR 22/18 A2976 RMK AO2 SLP076 T02220178 =
2018-06-21 11:56 METAR KGON 211556Z 17007KT 10SM CLR 22/17 A2978 RMK AO2 SLP082 T02170172 =
2018-06-21 10:56 METAR KGON 211456Z 00000KT 10SM CLR 22/17 A2978 RMK AO2 SLP085 T02170172 51007 =
2018-06-21 09:56 METAR KGON 211356Z 08004KT 10SM FEW080 19/17 A2978 RMK AO2 SLP084 T01940167 =
2018-06-21 09:39 METAR KGON 211339Z 08005KT 10SM FEW007 SCT075 19/17 A2978 RMK AO2 T01890167 =
2018-06-21 08:56 METAR KGON 211256Z 10005KT 10SM OVC075 18/16 A2977 RMK AO2 SLP082 T01830161 $ =
2018-06-21 07:56 METAR KGON 211156Z 12003KT 10SM FEW070 OVC090 18/17 A2976 RMK AO2 RAB16E44
                 SLP079 P0000 6//// 7//// T01830167 10206 20172 53002 $ =
2018-06-21 06:56 METAR KGON 211056Z 01005KT 10SM OVC070 18/17 A2976 RMK AO2 SLP077 T01780167 $ =
2018-06-21 05:56 METAR KGON 210956Z AUTO 15008KT 10SM SCT060 OVC075 17/16 A2975 RMK AO2 RAE46
                 SLP073 P0002 T01720161 $ =
2018-06-21 04:56 METAR KGON 210856Z AUTO 19006KT 3SM RA BR BKN055 OVC080 17/16 A2976 RMK AO2
                 SLP077 P0007 6//// T01720161 55003 $ =
2018-06-21 03:56 METAR KGON 210756Z AUTO 22008KT 9SM -RA BKN070 OVC080 19/17 A2975 RMK AO2 SLP075
                 P0004 T01890172 $ =
2018-06-21 03:17 METAR KGON 210717Z AUTO 25005KT 6SM -RA BR SCT006 BKN065 OVC085 19/18 A2977 RMK
                 AO2 P0002 T01940183 $ =

Support USWX by starting your Amazon purchase here.